Yakutat Airport
PAYA : rendu visible

Aérodrome :











RETROUVEZ-NOUS SUR...

 
LOGIN :

S'inscrire | Disclaimer

   EN    FR    IT 

 









Légende :    VFR   VFR Marginal   IFR   IFR Intensif   IFR Très Intensif
Visi : 
Plafond : 
>= 8 km
>= 3000ft
5 à 8 km
1000 à 3000 ft
1500m à 5 km
500 à 1000 ft
800 à 1500m
200 à 500 ft
< 800m
< 200 ft
Symboles :   Orages  Brouillard  Fortes neiges  Fortes précipitations  Vent > 20 kt






- Altitude de l'aérodrome : 33 ft


PAYA - Yakutat

DERNIER METAR :
  • 280453Z AUTO 33005KT 10SM CLR 12/04 A3014 RMK AO2 SLP206 T01220044 TSNO $

METARs EXPIRÉS :
  • 280353Z AUTO 33004KT 10SM CLR 14/04 A3015 RMK AO2 SLP210 T01390044 TSNO $
  • 280253Z AUTO 27003KT 10SM SCT042 14/05 A3017 RMK SLP216 T01390050 58015 TSNO $ VIA AUTODIAL

TAF PAYA
Valide du 28 à 06h jusqu'au 29 à 06h UTC


280525Z 2806/2906 33005KT P6SM FEW200
FM281800 26005KT P6SM SCT150 AMD LTD TO CLD VIS AND WIND
FIR PAZA / Amérique du Nord



MET'MAP, la Météo Aéronautique d'un coup d'oeil ! - Copyright ORBIFLY Décembre 2007 - Disclaimer

ORBIFLY MET'MAP TEAM :

Programmation & Développement : Alexandra Zaïnal
Sur une idée originale de : Baudouin d'Aumeries
Assistance à la programmation : Marc-Olivier Méhu
Soutien technique & logistique : Manuel Goepfert

Contact : metmap@orbifly.com




SOURCES & CREDITS :

   NOAA       Earth
Advisory